createdAt,value
2023-02-23T05:28:43.056Z,96666.63
2023-02-23T05:31:09.949Z,96665.63
2023-02-23T05:33:42.557Z,96658.75
2023-02-23T05:36:13.205Z,96663.19
2023-02-23T05:38:40.645Z,96658.75
2023-02-23T05:41:11.300Z,96660.41
2023-02-23T05:43:37.867Z,96661.22
2023-02-23T05:46:08.146Z,96663.03
2023-02-23T05:48:35.132Z,96665.63
2023-02-23T05:51:05.717Z,96662.38
2023-02-23T05:53:32.436Z,96662.69
2023-02-23T05:55:58.923Z,96662.53
2023-02-23T05:58:25.429Z,96663.34
2023-02-23T06:00:52.477Z,96662.69
2023-02-23T06:03:19.037Z,96659.72
2023-02-23T06:05:52.321Z,96665.97
2023-02-23T06:08:19.084Z,96663.34
2023-02-23T06:10:45.790Z,96666.25
2023-02-23T06:13:12.719Z,96666.06
2023-02-23T06:15:39.440Z,96672.78
2023-02-23T06:18:06.104Z,96668.81
2023-02-23T06:20:32.606Z,96673.38
2023-02-23T06:22:59.121Z,96674.03
2023-02-23T06:25:25.715Z,96677.91
2023-02-23T06:27:52.232Z,96674.31
2023-02-23T06:30:19.736Z,96682.16
2023-02-23T06:32:46.309Z,96685.97
2023-02-23T06:35:12.963Z,96688.41
2023-02-23T06:37:39.606Z,96691.22
2023-02-23T06:40:06.468Z,96691.75
2023-02-23T06:42:32.996Z,96693.72
2023-02-23T06:44:59.525Z,96697.16
2023-02-23T06:47:26.068Z,96698.97
2023-02-23T06:49:52.605Z,96703.41
2023-02-23T06:52:19.163Z,96710.09
2023-02-23T06:54:45.703Z,96706.03
2023-02-23T06:57:12.507Z,96713.06
2023-02-23T06:59:39.393Z,96717.31
2023-02-23T07:02:06.230Z,96725.03
2023-02-23T07:04:33.059Z,96723.84
2023-02-23T07:06:59.528Z,96723.03
2023-02-23T07:09:26.127Z,96725.47
2023-02-23T07:11:53.325Z,96728.75
2023-02-23T07:14:26.531Z,96728.22
2023-02-23T07:16:54.508Z,96741.34
2023-02-23T07:19:21.106Z,96738.53
2023-02-23T07:21:47.661Z,96739.34
2023-02-23T07:24:14.274Z,96736.56
2023-02-23T07:26:43.644Z,96746.09
2023-02-23T07:29:10.385Z,96745.75
2023-02-23T07:31:37.852Z,96750.00
2023-02-23T07:34:04.429Z,96749.81
2023-02-23T07:36:30.910Z,96747.19
2023-02-23T07:38:57.583Z,96749.81
2023-02-23T07:41:24.105Z,96750.97
2023-02-23T07:43:50.635Z,96752.16
2023-02-23T07:46:17.462Z,96754.59
2023-02-23T07:48:45.121Z,96760.84
2023-02-23T07:51:12.845Z,96759.22
2023-02-23T07:53:39.883Z,96752.78
2023-02-23T07:56:06.574Z,96762.47
2023-02-23T07:58:33.090Z,96758.84
2023-02-23T08:00:59.896Z,96763.13
2023-02-23T08:03:26.507Z,96757.69
2023-02-23T08:05:53.060Z,96768.66
2023-02-23T08:08:19.855Z,96768.94
2023-02-23T08:10:49.856Z,96769.25
2023-02-23T08:13:16.772Z,96767.91
2023-02-23T08:15:43.742Z,96772.00
2023-02-23T08:18:10.554Z,96771.81
2023-02-23T08:20:37.177Z,96778.00
2023-02-23T08:23:03.732Z,96776.97
2023-02-23T08:25:30.251Z,96781.31
2023-02-23T08:27:56.805Z,96776.22
2023-02-23T08:30:24.293Z,96773.88
2023-02-23T08:32:53.664Z,96777.13
2023-02-23T08:35:20.411Z,96777.88
2023-02-23T08:37:46.945Z,96783.69
2023-02-23T08:40:15.729Z,96789.19
2023-02-23T08:42:42.609Z,96791.72
2023-02-23T08:45:09.499Z,96781.78
2023-02-23T08:47:36.334Z,96790.38
2023-02-23T08:50:03.028Z,96796.47
2023-02-23T08:52:29.813Z,96795.00
2023-02-23T08:54:56.562Z,96788.41
2023-02-23T08:57:23.023Z,96791.84
2023-02-23T08:59:49.627Z,96796.59
2023-02-23T09:02:16.156Z,96795.84
2023-02-23T09:04:43.087Z,96799.75
2023-02-23T09:07:19.421Z,96803.00
2023-02-23T09:09:45.874Z,96808.91
2023-02-23T09:12:12.312Z,96807.28
2023-02-23T09:14:38.871Z,96815.53
2023-02-23T09:17:05.326Z,96816.44
2023-02-23T09:19:31.872Z,96819.94
2023-02-23T09:21:58.388Z,96817.13
2023-02-23T09:24:24.905Z,96819.78
2023-02-23T09:26:53.753Z,96825.97
2023-02-23T09:29:20.414Z,96818.81
2023-02-23T09:31:47.143Z,96820.19
2023-02-23T09:34:13.753Z,96828.06
2023-02-23T09:36:40.410Z,96824.50
2023-02-23T09:39:06.926Z,96832.53
2023-02-23T09:41:46.526Z,96828.44
2023-02-23T09:44:19.110Z,96825.53
2023-02-23T09:46:45.591Z,96826.66
2023-02-23T09:49:13.847Z,96830.03
2023-02-23T09:51:41.149Z,96833.47
2023-02-23T09:54:09.656Z,96835.84
2023-02-23T09:56:37.344Z,96835.94
2023-02-23T09:59:09.754Z,96839.22
2023-02-23T10:01:48.754Z,96834.03
2023-02-23T10:04:38.711Z,96842.28
2023-02-23T10:07:07.483Z,96835.50
2023-02-23T10:09:57.351Z,96839.47
2023-02-23T10:12:35.636Z,96842.06
2023-02-23T10:15:14.502Z,96850.34
2023-02-23T10:17:47.397Z,96844.19
2023-02-23T10:20:26.235Z,96852.59
2023-02-23T10:22:52.841Z,96852.09
2023-02-23T10:25:20.502Z,96843.72
2023-02-23T10:27:47.892Z,96849.06
2023-02-23T10:30:19.818Z,96848.00
2023-02-23T10:32:51.930Z,96852.75
2023-02-23T10:35:21.143Z,96848.22
2023-02-23T10:37:47.844Z,96851.84
2023-02-23T10:40:18.306Z,96848.94
2023-02-23T10:42:44.898Z,96852.28
2023-02-23T10:45:24.808Z,96854.06
2023-02-23T10:47:55.852Z,96856.25
2023-02-23T10:50:22.660Z,96860.84
2023-02-23T10:52:49.385Z,96861.84
2023-02-23T10:55:24.837Z,96866.00
2023-02-23T10:57:54.226Z,96868.50
2023-02-23T11:00:21.519Z,96867.41
2023-02-23T11:02:48.221Z,96870.84
2023-02-23T11:05:32.505Z,96872.19
2023-02-23T11:08:09.178Z,96862.69
2023-02-23T11:10:35.807Z,96865.84
2023-02-23T11:13:02.361Z,96858.16
2023-02-23T11:15:47.195Z,96861.22
2023-02-23T11:18:20.583Z,96860.06
2023-02-23T11:20:47.160Z,96869.22
2023-02-23T11:23:34.161Z,96861.69
2023-02-23T11:26:01.478Z,96860.97
2023-02-23T11:28:30.355Z,96859.66
2023-02-23T11:30:58.149Z,96849.31
2023-02-23T11:33:26.767Z,96856.97
2023-02-23T11:36:00.170Z,96856.78
2023-02-23T11:38:27.804Z,96857.59
2023-02-23T11:41:05.331Z,96860.41
2023-02-23T11:43:31.867Z,96859.22
2023-02-23T11:45:59.034Z,96857.22
2023-02-23T11:48:25.535Z,96847.66
2023-02-23T11:50:52.122Z,96857.19
2023-02-23T11:53:19.830Z,96851.97
2023-02-23T11:55:47.116Z,96846.91
2023-02-23T11:58:27.414Z,96845.84
2023-02-23T12:00:57.077Z,96850.81
2023-02-23T12:03:23.985Z,96845.19
2023-02-23T12:05:51.919Z,96846.81
2023-02-23T12:08:20.405Z,96838.84
2023-02-23T12:10:54.618Z,96851.19
2023-02-23T12:16:52.802Z,96847.47
2023-02-23T12:19:24.729Z,96847.81
2023-02-23T12:21:54.288Z,96838.38
2023-02-23T12:24:23.930Z,96844.38
2023-02-23T12:26:50.466Z,96836.00
2023-02-23T12:29:21.802Z,96841.91
2023-02-23T12:35:31.352Z,96841.06
2023-02-23T12:38:02.697Z,96844.50
2023-02-23T12:40:30.636Z,96834.22
2023-02-23T12:43:16.070Z,96833.22
2023-02-23T12:45:43.599Z,96832.19
2023-02-23T12:55:12.781Z,96837.44
2023-02-23T12:57:42.654Z,96835.53
2023-02-23T13:00:24.044Z,96837.38
2023-02-23T13:02:53.404Z,96840.56
2023-02-23T13:05:22.705Z,96835.34
2023-02-23T13:07:57.252Z,96842.66
2023-02-23T13:10:31.332Z,96842.88
2023-02-23T13:13:17.397Z,96833.19
2023-02-23T13:15:49.998Z,96830.28
2023-02-23T13:18:24.758Z,96834.25
2023-02-23T13:20:52.290Z,96838.41
2023-02-23T13:23:21.733Z,96836.00
2023-02-23T13:29:24.215Z,96838.34
2023-02-23T13:31:50.887Z,96840.25
2023-02-23T13:34:21.852Z,96836.28
2023-02-23T13:36:50.583Z,96838.09
2023-02-23T13:39:36.045Z,96832.91
2023-02-23T13:42:02.522Z,96833.75
2023-02-23T13:44:38.273Z,96842.03
2023-02-23T13:47:04.798Z,96844.38
2023-02-23T13:49:36.682Z,96855.03
2023-02-23T13:52:09.711Z,96845.03
2023-02-23T13:58:18.517Z,96850.91
2023-02-23T14:04:20.780Z,96839.84
2023-02-23T14:07:04.423Z,96853.31
2023-02-23T14:09:31.914Z,96850.50
2023-02-23T14:12:07.691Z,96854.94
2023-02-23T14:14:34.181Z,96853.94
2023-02-23T14:17:15.951Z,96856.56
2023-02-23T14:19:43.671Z,96855.41
2023-02-23T14:22:11.545Z,96851.66
2023-02-23T14:24:38.075Z,96854.31
2023-02-23T14:27:10.648Z,96848.59
2023-02-23T14:29:41.305Z,96854.19
2023-02-23T14:32:20.406Z,96853.06
2023-02-23T14:34:57.472Z,96856.34
2023-02-23T14:37:40.336Z,96864.84
2023-02-23T14:40:13.062Z,96858.78
2023-02-23T14:42:40.307Z,96857.97
2023-02-23T14:45:19.841Z,96860.59
2023-02-23T14:47:47.171Z,96865.63
2023-02-23T14:50:39.266Z,96868.53
2023-02-23T14:56:42.224Z,96872.72
2023-02-23T14:59:14.482Z,96875.34
2023-02-23T15:01:42.447Z,96875.25
2023-02-23T15:07:40.250Z,96880.34
2023-02-23T15:13:41.209Z,96875.91
2023-02-23T15:19:36.639Z,96876.41
2023-02-23T15:22:03.815Z,96878.22
2023-02-23T15:27:29.395Z,96879.00
2023-02-23T15:33:35.797Z,96881.97
2023-02-23T15:36:02.345Z,96881.31
2023-02-23T15:38:45.736Z,96888.69
2023-02-23T15:41:27.155Z,96880.81
2023-02-23T15:44:02.286Z,96879.34
2023-02-23T15:46:34.357Z,96888.19
2023-02-23T15:52:39.917Z,96888.81
2023-02-23T15:58:42.060Z,96889.16
2023-02-23T16:05:06.224Z,96895.22
2023-02-23T16:11:12.983Z,96893.41
2023-02-23T16:13:43.710Z,96895.38
2023-02-23T16:16:11.774Z,96884.25
2023-02-23T16:19:01.443Z,96885.06
2023-02-23T16:31:58.301Z,96882.91
2023-02-23T16:34:26.529Z,96881.63
2023-02-23T16:37:03.966Z,96879.31
2023-02-23T16:39:34.446Z,96880.13
2023-02-23T16:42:00.979Z,96878.81
2023-02-23T16:44:34.376Z,96882.41
2023-02-23T16:47:23.910Z,96888.47
2023-02-23T16:49:50.713Z,96892.88
2023-02-23T16:52:18.364Z,96892.88
2023-02-23T16:54:56.481Z,96888.78
2023-02-23T17:00:52.783Z,96879.44
2023-02-23T17:03:21.854Z,96884.19
2023-02-23T17:05:48.444Z,96885.00
2023-02-23T17:08:15.159Z,96891.06
2023-02-23T17:10:41.815Z,96883.19
2023-02-23T17:13:16.575Z,96885.66
2023-02-23T17:15:48.176Z,96885.50
2023-02-23T17:18:15.098Z,96884.53
2023-02-23T17:20:41.635Z,96884.53
2023-02-23T17:23:08.288Z,96887.16
2023-02-23T17:25:34.862Z,96890.44
2023-02-23T17:28:14.943Z,96891.41
2023-02-23T17:30:42.992Z,96896.66
2023-02-23T17:33:09.723Z,96890.44
2023-02-23T17:39:09.653Z,96895.84
2023-02-23T17:41:36.274Z,96896.78
2023-02-23T17:44:05.866Z,96897.09
2023-02-23T17:46:32.596Z,96894.66
2023-02-23T17:48:59.171Z,96896.28
2023-02-23T17:51:25.892Z,96893.50
2023-02-23T17:53:52.488Z,96891.72
2023-02-23T17:56:20.419Z,96898.56
2023-02-23T17:58:47.498Z,96895.66
2023-02-23T18:01:14.342Z,96890.59
2023-02-23T18:03:40.960Z,96897.63
2023-02-23T18:06:08.793Z,96893.66
2023-02-23T18:08:35.905Z,96897.25
2023-02-23T18:11:02.719Z,96901.84
2023-02-23T18:13:30.199Z,96895.97
2023-02-23T18:16:00.899Z,96905.59
2023-02-23T18:18:29.471Z,96910.69
2023-02-23T18:24:21.112Z,96905.13
2023-02-23T18:30:22.933Z,96912.63
2023-02-23T18:40:21.572Z,96911.00
2023-02-23T18:42:48.629Z,96911.97
2023-02-23T18:45:15.504Z,96909.34
2023-02-23T18:47:42.337Z,96903.31
2023-02-23T18:50:12.899Z,96906.09
2023-02-23T18:52:40.888Z,96909.69
2023-02-23T18:55:08.627Z,96912.13
2023-02-23T18:57:35.197Z,96911.31
2023-02-23T19:00:01.849Z,96912.97
2023-02-23T19:02:29.045Z,96912.97
2023-02-23T19:05:02.968Z,96904.28
2023-02-23T19:07:33.053Z,96906.91
2023-02-23T19:10:02.588Z,96909.34
2023-02-23T19:12:29.679Z,96908.88
2023-02-23T19:14:57.719Z,96911.66
2023-02-23T19:17:27.958Z,96904.78
2023-02-23T19:19:56.183Z,96903.09
2023-02-23T19:22:23.060Z,96899.53
2023-02-23T19:24:49.704Z,96906.41
2023-02-23T19:27:17.061Z,96905.28
2023-02-23T19:29:44.060Z,96903.63
2023-02-23T19:32:10.778Z,96903.63
2023-02-23T19:34:40.065Z,96897.59
2023-02-23T19:37:07.038Z,96899.22
2023-02-23T19:39:33.610Z,96896.44
2023-02-23T19:42:00.086Z,96911.13
2023-02-23T19:44:26.714Z,96901.78
2023-02-23T19:46:53.329Z,96898.50
2023-02-23T19:49:19.997Z,96901.28
2023-02-23T19:51:47.837Z,96908.31
2023-02-23T19:54:14.429Z,96905.63
2023-02-23T19:56:41.011Z,96909.06
2023-02-23T19:59:07.600Z,96908.41
2023-02-23T20:01:34.618Z,96901.69
2023-02-23T20:04:06.661Z,96906.91
2023-02-23T20:06:34.836Z,96905.13
2023-02-23T20:09:02.508Z,96905.25
2023-02-23T20:11:30.053Z,96916.53
2023-02-23T20:13:57.821Z,96908.84
2023-02-23T20:16:29.632Z,96917.00
2023-02-23T20:18:59.920Z,96923.22
2023-02-23T20:21:27.396Z,96918.47
2023-02-23T20:23:54.419Z,96919.63
2023-02-23T20:26:22.171Z,96921.25
2023-02-23T20:28:50.182Z,96910.78
2023-02-23T20:31:21.170Z,96911.09
2023-02-23T20:33:50.956Z,96923.88
2023-02-23T20:36:17.927Z,96917.16
2023-02-23T20:38:44.575Z,96916.50
2023-02-23T20:41:11.155Z,96908.66
2023-02-23T20:43:38.041Z,96909.47
2023-02-23T20:46:04.872Z,96909.31
2023-02-23T20:48:32.626Z,96913.06
2023-02-23T20:50:59.518Z,96913.06
2023-02-23T20:53:26.513Z,96907.00
2023-02-23T20:55:53.534Z,96911.94
2023-02-23T20:58:25.637Z,96908.50
2023-02-23T21:00:54.697Z,96909.47
2023-02-23T21:03:21.626Z,96905.88
2023-02-23T21:05:51.701Z,96913.06
2023-02-23T21:08:18.550Z,96908.50
2023-02-23T21:10:45.389Z,96905.53
2023-02-23T21:13:12.097Z,96901.59
2023-02-23T21:15:39.444Z,96899.66
2023-02-23T21:18:06.254Z,96907.34
2023-02-23T21:20:33.582Z,96904.56
2023-02-23T21:23:00.494Z,96900.81
2023-02-23T21:25:27.820Z,96908.66
2023-02-23T21:27:54.863Z,96902.59
2023-02-23T21:30:22.574Z,96893.13
2023-02-23T21:32:50.079Z,96902.91
2023-02-23T21:35:16.728Z,96901.44
2023-02-23T21:37:43.604Z,96899.97
2023-02-23T21:40:14.286Z,96893.22
2023-02-23T21:42:41.450Z,96896.00
2023-02-23T21:45:08.778Z,96886.00
2023-02-23T21:47:36.097Z,96882.75
2023-02-23T21:50:02.825Z,96890.06
2023-02-23T21:52:30.014Z,96889.41
2023-02-23T21:54:56.703Z,96885.31
2023-02-23T21:57:23.375Z,96888.91
2023-02-23T21:59:50.303Z,96885.31
2023-02-23T22:02:16.907Z,96894.63
2023-02-23T22:04:45.636Z,96886.97
2023-02-23T22:07:12.307Z,96889.09
2023-02-23T22:09:38.860Z,96888.13
2023-02-23T22:12:07.113Z,96886.31
2023-02-23T22:14:33.741Z,96878.31
2023-02-23T22:17:00.524Z,96881.59
2023-02-23T22:19:27.017Z,96887.50
2023-02-23T22:21:53.568Z,96879.66
2023-02-23T22:24:20.273Z,96887.34
2023-02-23T22:26:50.679Z,96874.94
2023-02-23T22:29:17.325Z,96868.88
2023-02-23T22:31:44.272Z,96872.47
2023-02-23T22:34:11.067Z,96877.53
2023-02-23T22:36:37.678Z,96882.94
2023-02-23T22:39:09.671Z,96867.25
2023-02-23T22:41:42.502Z,96867.25
2023-02-23T22:44:13.646Z,96868.06
2023-02-23T22:46:40.952Z,96862.69
2023-02-23T22:49:10.627Z,96860.88
2023-02-23T22:51:37.967Z,96858.25
2023-02-23T22:54:07.568Z,96853.19
2023-02-23T22:56:36.572Z,96856.78
2023-02-23T22:59:08.737Z,96848.94
2023-02-23T23:01:35.997Z,96851.56
2023-02-23T23:04:10.175Z,96851.56
2023-02-23T23:06:40.702Z,96847.97
2023-02-23T23:09:08.314Z,96854.84
2023-02-23T23:11:37.871Z,96852.09
2023-02-23T23:14:07.205Z,96848.50
2023-02-23T23:16:35.048Z,96850.13
2023-02-23T23:19:12.235Z,96841.63
2023-02-23T23:21:40.075Z,96843.28
2023-02-23T23:24:07.062Z,96837.22
2023-02-23T23:26:34.819Z,96840.50
2023-02-23T23:29:04.775Z,96842.78
2023-02-23T23:31:32.182Z,96838.53
2023-02-23T23:34:02.929Z,96838.53
2023-02-23T23:36:32.178Z,96828.91
2023-02-23T23:38:59.268Z,96834.94
2023-02-23T23:41:26.741Z,96830.53
2023-02-23T23:43:54.962Z,96822.69
2023-02-23T23:46:25.646Z,96818.94
2023-02-23T23:48:55.863Z,96812.91
2023-02-23T23:51:24.475Z,96812.72
2023-02-23T23:53:54.543Z,96815.34
2023-02-23T23:56:21.392Z,96809.13
2023-02-23T23:58:49.150Z,96807.34
